sensor_id;sensor_type;location;lat;lon;timestamp;temperature;humidity
56771;DHT22;42641;59.794;17.616;2022-11-20T00:01:18;1.90;99.90
56771;DHT22;42641;59.794;17.616;2022-11-20T00:03:46;2.00;99.90
56771;DHT22;42641;59.794;17.616;2022-11-20T00:06:17;1.90;99.90
56771;DHT22;42641;59.794;17.616;2022-11-20T00:08:45;2.00;99.90
56771;DHT22;42641;59.794;17.616;2022-11-20T00:11:16;1.90;99.90
56771;DHT22;42641;59.794;17.616;2022-11-20T00:13:44;2.00;99.90
56771;DHT22;42641;59.794;17.616;2022-11-20T00:16:13;1.90;99.90
56771;DHT22;42641;59.794;17.616;2022-11-20T00:18:40;1.90;99.90
56771;DHT22;42641;59.794;17.616;2022-11-20T00:21:12;1.90;99.90
56771;DHT22;42641;59.794;17.616;2022-11-20T00:23:39;1.90;99.90
56771;DHT22;42641;59.794;17.616;2022-11-20T00:26:10;1.90;99.90
56771;DHT22;42641;59.794;17.616;2022-11-20T00:28:37;1.90;99.90
56771;DHT22;42641;59.794;17.616;2022-11-20T00:33:32;1.90;99.90
56771;DHT22;42641;59.794;17.616;2022-11-20T00:36:03;1.90;99.90
56771;DHT22;42641;59.794;17.616;2022-11-20T00:38:31;1.80;99.90
56771;DHT22;42641;59.794;17.616;2022-11-20T00:40:59;1.80;99.90
56771;DHT22;42641;59.794;17.616;2022-11-20T00:43:26;1.70;99.90
56771;DHT22;42641;59.794;17.616;2022-11-20T00:46:16;1.70;99.90
56771;DHT22;42641;59.794;17.616;2022-11-20T00:48:43;1.60;99.90
56771;DHT22;42641;59.794;17.616;2022-11-20T00:51:12;1.60;99.90
56771;DHT22;42641;59.794;17.616;2022-11-20T00:53:38;1.60;99.90
56771;DHT22;42641;59.794;17.616;2022-11-20T00:56:08;1.50;99.90
56771;DHT22;42641;59.794;17.616;2022-11-20T00:58:38;1.60;99.90
56771;DHT22;42641;59.794;17.616;2022-11-20T01:01:07;1.60;99.90
56771;DHT22;42641;59.794;17.616;2022-11-20T01:03:36;1.60;99.90
56771;DHT22;42641;59.794;17.616;2022-11-20T01:06:05;1.60;99.90
56771;DHT22;42641;59.794;17.616;2022-11-20T01:08:33;1.60;99.90
56771;DHT22;42641;59.794;17.616;2022-11-20T01:11:08;1.70;99.90
56771;DHT22;42641;59.794;17.616;2022-11-20T01:13:35;1.70;99.90
56771;DHT22;42641;59.794;17.616;2022-11-20T01:16:16;1.60;99.90
56771;DHT22;42641;59.794;17.616;2022-11-20T01:18:46;1.60;99.90
56771;DHT22;42641;59.794;17.616;2022-11-20T01:21:15;1.60;99.90
56771;DHT22;42641;59.794;17.616;2022-11-20T01:23:43;1.50;99.90
56771;DHT22;42641;59.794;17.616;2022-11-20T01:26:12;1.50;99.90
56771;DHT22;42641;59.794;17.616;2022-11-20T01:28:39;1.50;99.90
56771;DHT22;42641;59.794;17.616;2022-11-20T01:31:19;1.50;99.90
56771;DHT22;42641;59.794;17.616;2022-11-20T01:33:47;1.60;99.90
56771;DHT22;42641;59.794;17.616;2022-11-20T01:36:15;1.50;99.90
56771;DHT22;42641;59.794;17.616;2022-11-20T01:38:42;1.50;99.90
56771;DHT22;42641;59.794;17.616;2022-11-20T01:41:10;1.50;99.90
56771;DHT22;42641;59.794;17.616;2022-11-20T01:43:37;1.50;99.90
56771;DHT22;42641;59.794;17.616;2022-11-20T01:48:51;1.40;99.90
56771;DHT22;42641;59.794;17.616;2022-11-20T01:51:28;1.50;99.90
56771;DHT22;42641;59.794;17.616;2022-11-20T01:53:58;1.50;99.90
56771;DHT22;42641;59.794;17.616;2022-11-20T01:56:26;1.50;99.90
56771;DHT22;42641;59.794;17.616;2022-11-20T01:58:57;1.50;99.90
56771;DHT22;42641;59.794;17.616;2022-11-20T02:01:24;1.50;99.90
56771;DHT22;42641;59.794;17.616;2022-11-20T02:03:51;1.50;99.90
56771;DHT22;42641;59.794;17.616;2022-11-20T02:06:25;1.50;99.90
56771;DHT22;42641;59.794;17.616;2022-11-20T02:08:52;1.50;99.90
56771;DHT22;42641;59.794;17.616;2022-11-20T02:11:19;1.50;99.90
56771;DHT22;42641;59.794;17.616;2022-11-20T02:13:45;1.50;99.90
56771;DHT22;42641;59.794;17.616;2022-11-20T02:16:25;1.50;99.90
56771;DHT22;42641;59.794;17.616;2022-11-20T02:18:54;1.60;99.90
56771;DHT22;42641;59.794;17.616;2022-11-20T02:24:09;1.50;99.90
56771;DHT22;42641;59.794;17.616;2022-11-20T02:26:53;1.50;99.90
56771;DHT22;42641;59.794;17.616;2022-11-20T02:29:30;1.50;99.90
56771;DHT22;42641;59.794;17.616;2022-11-20T02:31:57;1.50;99.90
56771;DHT22;42641;59.794;17.616;2022-11-20T02:34:24;1.50;99.90
56771;DHT22;42641;59.794;17.616;2022-11-20T02:36:55;1.50;99.90
56771;DHT22;42641;59.794;17.616;2022-11-20T02:39:25;1.50;99.90
56771;DHT22;42641;59.794;17.616;2022-11-20T02:41:53;1.50;99.90
56771;DHT22;42641;59.794;17.616;2022-11-20T02:44:20;1.40;99.90
56771;DHT22;42641;59.794;17.616;2022-11-20T02:46:46;1.40;99.90
56771;DHT22;42641;59.794;17.616;2022-11-20T02:49:13;1.40;99.90
56771;DHT22;42641;59.794;17.616;2022-11-20T02:51:39;1.40;99.90
56771;DHT22;42641;59.794;17.616;2022-11-20T02:54:05;1.40;99.90
56771;DHT22;42641;59.794;17.616;2022-11-20T02:56:31;1.40;99.90
56771;DHT22;42641;59.794;17.616;2022-11-20T02:58:58;1.40;99.90
56771;DHT22;42641;59.794;17.616;2022-11-20T03:01:24;1.40;99.90
56771;DHT22;42641;59.794;17.616;2022-11-20T03:03:50;1.30;99.90
56771;DHT22;42641;59.794;17.616;2022-11-20T03:06:18;1.30;99.90
56771;DHT22;42641;59.794;17.616;2022-11-20T03:08:44;1.40;99.90
56771;DHT22;42641;59.794;17.616;2022-11-20T03:11:11;1.40;99.90
56771;DHT22;42641;59.794;17.616;2022-11-20T03:13:37;1.30;99.90
56771;DHT22;42641;59.794;17.616;2022-11-20T03:16:12;1.30;99.90
56771;DHT22;42641;59.794;17.616;2022-11-20T03:18:40;1.30;99.90
56771;DHT22;42641;59.794;17.616;2022-11-20T03:21:07;1.30;99.90
56771;DHT22;42641;59.794;17.616;2022-11-20T03:23:35;1.20;99.90
56771;DHT22;42641;59.794;17.616;2022-11-20T03:26:27;1.30;99.90
56771;DHT22;42641;59.794;17.616;2022-11-20T03:28:59;1.20;99.90
56771;DHT22;42641;59.794;17.616;2022-11-20T03:31:38;1.20;99.90
56771;DHT22;42641;59.794;17.616;2022-11-20T03:34:07;1.20;99.90
56771;DHT22;42641;59.794;17.616;2022-11-20T03:36:34;1.20;99.90
56771;DHT22;42641;59.794;17.616;2022-11-20T03:39:00;1.20;99.90
56771;DHT22;42641;59.794;17.616;2022-11-20T03:41:31;1.20;99.90
56771;DHT22;42641;59.794;17.616;2022-11-20T03:44:00;1.20;99.90
56771;DHT22;42641;59.794;17.616;2022-11-20T03:46:27;1.20;99.90
56771;DHT22;42641;59.794;17.616;2022-11-20T03:48:54;1.20;99.90
56771;DHT22;42641;59.794;17.616;2022-11-20T03:51:29;1.20;99.90
56771;DHT22;42641;59.794;17.616;2022-11-20T03:53:58;1.20;99.90
56771;DHT22;42641;59.794;17.616;2022-11-20T03:56:30;1.20;99.90
56771;DHT22;42641;59.794;17.616;2022-11-20T03:58:57;1.10;99.90
56771;DHT22;42641;59.794;17.616;2022-11-20T04:01:29;1.10;99.90
56771;DHT22;42641;59.794;17.616;2022-11-20T04:03:56;1.10;99.90
56771;DHT22;42641;59.794;17.616;2022-11-20T04:06:26;1.20;99.90
56771;DHT22;42641;59.794;17.616;2022-11-20T04:08:57;1.10;99.90
56771;DHT22;42641;59.794;17.616;2022-11-20T04:11:26;1.10;99.90
56771;DHT22;42641;59.794;17.616;2022-11-20T04:13:55;1.10;99.90
56771;DHT22;42641;59.794;17.616;2022-11-20T04:16:23;1.10;99.90
56771;DHT22;42641;59.794;17.616;2022-11-20T04:18:54;1.10;99.90
56771;DHT22;42641;59.794;17.616;2022-11-20T04:21:22;1.10;99.90
56771;DHT22;42641;59.794;17.616;2022-11-20T04:23:49;1.10;99.90
56771;DHT22;42641;59.794;17.616;2022-11-20T04:26:16;1.20;99.90
56771;DHT22;42641;59.794;17.616;2022-11-20T04:28:42;1.20;99.90
56771;DHT22;42641;59.794;17.616;2022-11-20T04:31:12;1.30;99.90
56771;DHT22;42641;59.794;17.616;2022-11-20T04:33:39;1.20;99.90
56771;DHT22;42641;59.794;17.616;2022-11-20T04:36:09;1.20;99.90
56771;DHT22;42641;59.794;17.616;2022-11-20T04:38:36;1.20;99.90
56771;DHT22;42641;59.794;17.616;2022-11-20T04:41:04;1.20;99.90
56771;DHT22;42641;59.794;17.616;2022-11-20T04:43:31;1.30;99.90
56771;DHT22;42641;59.794;17.616;2022-11-20T04:45:59;1.20;99.90
56771;DHT22;42641;59.794;17.616;2022-11-20T04:48:26;1.20;99.90
56771;DHT22;42641;59.794;17.616;2022-11-20T04:50:54;1.10;99.90
56771;DHT22;42641;59.794;17.616;2022-11-20T04:53:21;1.10;99.90
56771;DHT22;42641;59.794;17.616;2022-11-20T04:55:48;1.10;99.90
56771;DHT22;42641;59.794;17.616;2022-11-20T04:58:15;1.10;99.90
56771;DHT22;42641;59.794;17.616;2022-11-20T05:00:41;1.10;99.90
56771;DHT22;42641;59.794;17.616;2022-11-20T05:03:08;1.10;99.90
56771;DHT22;42641;59.794;17.616;2022-11-20T05:05:34;1.10;99.90
56771;DHT22;42641;59.794;17.616;2022-11-20T05:08:01;1.20;99.90
56771;DHT22;42641;59.794;17.616;2022-11-20T05:10:27;1.10;99.90
56771;DHT22;42641;59.794;17.616;2022-11-20T05:12:54;1.20;99.90
56771;DHT22;42641;59.794;17.616;2022-11-20T05:15:20;1.10;99.90
56771;DHT22;42641;59.794;17.616;2022-11-20T05:17:50;1.10;99.90
56771;DHT22;42641;59.794;17.616;2022-11-20T05:20:17;1.10;99.90
56771;DHT22;42641;59.794;17.616;2022-11-20T05:22:44;1.10;99.90
56771;DHT22;42641;59.794;17.616;2022-11-20T05:25:11;1.10;99.90
56771;DHT22;42641;59.794;17.616;2022-11-20T05:27:38;1.00;99.90
56771;DHT22;42641;59.794;17.616;2022-11-20T05:30:05;1.10;99.90
56771;DHT22;42641;59.794;17.616;2022-11-20T05:32:32;1.10;99.90
56771;DHT22;42641;59.794;17.616;2022-11-20T05:34:58;1.10;99.90
56771;DHT22;42641;59.794;17.616;2022-11-20T05:37:25;1.20;99.90
56771;DHT22;42641;59.794;17.616;2022-11-20T05:39:52;1.20;99.90
56771;DHT22;42641;59.794;17.616;2022-11-20T05:42:18;1.30;99.90
56771;DHT22;42641;59.794;17.616;2022-11-20T05:45:00;1.30;99.90
56771;DHT22;42641;59.794;17.616;2022-11-20T05:47:30;1.30;99.90
56771;DHT22;42641;59.794;17.616;2022-11-20T05:49:57;1.40;99.90
56771;DHT22;42641;59.794;17.616;2022-11-20T05:52:23;1.40;99.90
56771;DHT22;42641;59.794;17.616;2022-11-20T05:54:50;1.40;99.90
56771;DHT22;42641;59.794;17.616;2022-11-20T05:57:16;1.40;99.90
56771;DHT22;42641;59.794;17.616;2022-11-20T05:59:43;1.50;99.90
56771;DHT22;42641;59.794;17.616;2022-11-20T06:02:09;1.40;99.90
56771;DHT22;42641;59.794;17.616;2022-11-20T06:04:35;1.50;99.90
56771;DHT22;42641;59.794;17.616;2022-11-20T06:07:02;1.60;99.90
56771;DHT22;42641;59.794;17.616;2022-11-20T06:09:29;1.60;99.90
56771;DHT22;42641;59.794;17.616;2022-11-20T06:11:55;1.60;99.90
56771;DHT22;42641;59.794;17.616;2022-11-20T06:14:21;1.60;99.90
56771;DHT22;42641;59.794;17.616;2022-11-20T06:16:48;1.60;99.90
56771;DHT22;42641;59.794;17.616;2022-11-20T06:19:14;1.60;99.90
56771;DHT22;42641;59.794;17.616;2022-11-20T06:21:41;1.60;99.90
56771;DHT22;42641;59.794;17.616;2022-11-20T06:24:09;1.60;99.90
56771;DHT22;42641;59.794;17.616;2022-11-20T06:26:36;1.50;99.90
56771;DHT22;42641;59.794;17.616;2022-11-20T06:29:02;1.60;99.90
56771;DHT22;42641;59.794;17.616;2022-11-20T06:31:29;1.50;99.90
56771;DHT22;42641;59.794;17.616;2022-11-20T06:33:55;1.50;99.90
56771;DHT22;42641;59.794;17.616;2022-11-20T06:36:22;1.50;99.90
56771;DHT22;42641;59.794;17.616;2022-11-20T06:38:49;1.40;99.90
56771;DHT22;42641;59.794;17.616;2022-11-20T06:41:18;1.40;99.90
56771;DHT22;42641;59.794;17.616;2022-11-20T06:43:45;1.30;99.90
56771;DHT22;42641;59.794;17.616;2022-11-20T06:46:13;1.30;99.90
56771;DHT22;42641;59.794;17.616;2022-11-20T06:48:39;1.20;99.90
56771;DHT22;42641;59.794;17.616;2022-11-20T06:51:07;1.20;99.90
56771;DHT22;42641;59.794;17.616;2022-11-20T06:53:34;1.20;99.90
56771;DHT22;42641;59.794;17.616;2022-11-20T06:56:01;1.20;99.90
56771;DHT22;42641;59.794;17.616;2022-11-20T06:58:29;1.20;99.90
56771;DHT22;42641;59.794;17.616;2022-11-20T07:00:59;1.30;99.90
56771;DHT22;42641;59.794;17.616;2022-11-20T07:03:26;1.30;99.90
56771;DHT22;42641;59.794;17.616;2022-11-20T07:05:55;1.40;99.90
56771;DHT22;42641;59.794;17.616;2022-11-20T07:08:23;1.40;99.90
56771;DHT22;42641;59.794;17.616;2022-11-20T07:10:50;1.40;99.90
56771;DHT22;42641;59.794;17.616;2022-11-20T07:13:16;1.40;99.90
56771;DHT22;42641;59.794;17.616;2022-11-20T07:15:42;1.40;99.90
56771;DHT22;42641;59.794;17.616;2022-11-20T07:18:09;1.40;99.90
56771;DHT22;42641;59.794;17.616;2022-11-20T07:20:35;1.50;99.90
56771;DHT22;42641;59.794;17.616;2022-11-20T07:23:02;1.50;99.90
56771;DHT22;42641;59.794;17.616;2022-11-20T07:25:28;1.50;99.90
56771;DHT22;42641;59.794;17.616;2022-11-20T07:27:58;1.50;99.90
56771;DHT22;42641;59.794;17.616;2022-11-20T07:30:26;1.60;99.90
56771;DHT22;42641;59.794;17.616;2022-11-20T07:32:53;1.60;99.90
56771;DHT22;42641;59.794;17.616;2022-11-20T07:35:20;1.60;99.90
56771;DHT22;42641;59.794;17.616;2022-11-20T07:37:47;1.60;99.90
56771;DHT22;42641;59.794;17.616;2022-11-20T07:40:15;1.60;99.90
56771;DHT22;42641;59.794;17.616;2022-11-20T07:45:20;1.60;99.90
56771;DHT22;42641;59.794;17.616;2022-11-20T07:47:46;1.60;99.90
56771;DHT22;42641;59.794;17.616;2022-11-20T07:50:13;1.60;99.90
56771;DHT22;42641;59.794;17.616;2022-11-20T07:52:40;1.60;99.90
56771;DHT22;42641;59.794;17.616;2022-11-20T07:55:07;1.70;99.90
56771;DHT22;42641;59.794;17.616;2022-11-20T07:57:34;1.70;99.90
56771;DHT22;42641;59.794;17.616;2022-11-20T08:00:00;1.70;99.90
56771;DHT22;42641;59.794;17.616;2022-11-20T08:02:26;1.70;99.90
56771;DHT22;42641;59.794;17.616;2022-11-20T08:04:53;1.70;99.90
56771;DHT22;42641;59.794;17.616;2022-11-20T08:07:19;1.80;99.90
56771;DHT22;42641;59.794;17.616;2022-11-20T08:09:46;1.80;99.90
56771;DHT22;42641;59.794;17.616;2022-11-20T08:12:18;1.80;99.90
56771;DHT22;42641;59.794;17.616;2022-11-20T08:15:04;1.80;99.90
56771;DHT22;42641;59.794;17.616;2022-11-20T08:17:31;1.80;99.90
56771;DHT22;42641;59.794;17.616;2022-11-20T08:19:58;1.90;99.90
56771;DHT22;42641;59.794;17.616;2022-11-20T08:22:24;1.80;99.90
56771;DHT22;42641;59.794;17.616;2022-11-20T08:24:51;1.80;99.90
56771;DHT22;42641;59.794;17.616;2022-11-20T08:27:17;1.90;99.90
56771;DHT22;42641;59.794;17.616;2022-11-20T08:29:44;1.90;99.90
56771;DHT22;42641;59.794;17.616;2022-11-20T08:32:10;1.90;99.90
56771;DHT22;42641;59.794;17.616;2022-11-20T08:34:36;1.90;99.90
56771;DHT22;42641;59.794;17.616;2022-11-20T08:37:03;1.80;99.90
56771;DHT22;42641;59.794;17.616;2022-11-20T08:39:29;1.90;99.90
56771;DHT22;42641;59.794;17.616;2022-11-20T08:41:56;1.90;99.90
56771;DHT22;42641;59.794;17.616;2022-11-20T08:44:22;1.90;99.90
56771;DHT22;42641;59.794;17.616;2022-11-20T08:46:49;1.90;99.90
56771;DHT22;42641;59.794;17.616;2022-11-20T08:49:15;1.90;99.90
56771;DHT22;42641;59.794;17.616;2022-11-20T08:51:42;1.90;99.90
56771;DHT22;42641;59.794;17.616;2022-11-20T08:54:09;1.90;99.90
56771;DHT22;42641;59.794;17.616;2022-11-20T08:56:36;1.90;99.90
56771;DHT22;42641;59.794;17.616;2022-11-20T08:59:03;1.80;99.90
56771;DHT22;42641;59.794;17.616;2022-11-20T09:01:29;1.90;99.90
56771;DHT22;42641;59.794;17.616;2022-11-20T09:03:56;1.90;99.90
56771;DHT22;42641;59.794;17.616;2022-11-20T09:06:23;1.90;99.90
56771;DHT22;42641;59.794;17.616;2022-11-20T09:08:53;1.90;99.90
56771;DHT22;42641;59.794;17.616;2022-11-20T09:11:19;1.90;99.90
56771;DHT22;42641;59.794;17.616;2022-11-20T09:13:46;1.90;99.90
56771;DHT22;42641;59.794;17.616;2022-11-20T09:16:12;1.90;99.90
56771;DHT22;42641;59.794;17.616;2022-11-20T09:18:39;1.90;99.90
56771;DHT22;42641;59.794;17.616;2022-11-20T09:21:11;1.90;99.90
56771;DHT22;42641;59.794;17.616;2022-11-20T09:23:38;2.00;99.90
56771;DHT22;42641;59.794;17.616;2022-11-20T09:26:11;2.00;99.90
56771;DHT22;42641;59.794;17.616;2022-11-20T09:28:38;2.00;99.90
56771;DHT22;42641;59.794;17.616;2022-11-20T09:31:21;2.00;99.90
56771;DHT22;42641;59.794;17.616;2022-11-20T09:33:48;2.00;99.90
56771;DHT22;42641;59.794;17.616;2022-11-20T09:36:15;2.00;99.90
56771;DHT22;42641;59.794;17.616;2022-11-20T09:38:42;2.00;99.90
56771;DHT22;42641;59.794;17.616;2022-11-20T09:41:31;2.00;99.90
56771;DHT22;42641;59.794;17.616;2022-11-20T09:44:24;2.00;99.90
56771;DHT22;42641;59.794;17.616;2022-11-20T09:47:02;2.00;99.90
56771;DHT22;42641;59.794;17.616;2022-11-20T09:55:10;2.00;99.90
56771;DHT22;42641;59.794;17.616;2022-11-20T09:57:42;2.00;99.90
56771;DHT22;42641;59.794;17.616;2022-11-20T10:00:13;2.00;99.90
56771;DHT22;42641;59.794;17.616;2022-11-20T10:02:59;2.00;99.90
56771;DHT22;42641;59.794;17.616;2022-11-20T10:05:31;1.90;99.90
56771;DHT22;42641;59.794;17.616;2022-11-20T10:10:50;2.00;99.90
56771;DHT22;42641;59.794;17.616;2022-11-20T10:14:02;2.00;99.90
56771;DHT22;42641;59.794;17.616;2022-11-20T10:25:03;2.00;99.90
56771;DHT22;42641;59.794;17.616;2022-11-20T10:30:15;2.00;99.90
56771;DHT22;42641;59.794;17.616;2022-11-20T10:32:48;2.00;99.90
56771;DHT22;42641;59.794;17.616;2022-11-20T10:38:31;2.00;99.90
56771;DHT22;42641;59.794;17.616;2022-11-20T10:41:01;2.10;99.90
56771;DHT22;42641;59.794;17.616;2022-11-20T10:43:48;2.00;99.90
56771;DHT22;42641;59.794;17.616;2022-11-20T10:46:22;1.90;99.90
56771;DHT22;42641;59.794;17.616;2022-11-20T10:48:50;1.90;99.90
56771;DHT22;42641;59.794;17.616;2022-11-20T10:51:35;1.90;99.90
56771;DHT22;42641;59.794;17.616;2022-11-20T10:56:51;1.90;99.90
56771;DHT22;42641;59.794;17.616;2022-11-20T11:02:12;1.80;99.90
56771;DHT22;42641;59.794;17.616;2022-11-20T11:04:46;1.90;99.90
56771;DHT22;42641;59.794;17.616;2022-11-20T11:09:56;1.90;99.90
56771;DHT22;42641;59.794;17.616;2022-11-20T11:12:25;1.90;99.90
56771;DHT22;42641;59.794;17.616;2022-11-20T11:14:57;1.90;99.90
56771;DHT22;42641;59.794;17.616;2022-11-20T11:17:29;1.90;99.90
56771;DHT22;42641;59.794;17.616;2022-11-20T11:20:16;2.00;99.90
56771;DHT22;42641;59.794;17.616;2022-11-20T11:22:46;1.90;99.90
56771;DHT22;42641;59.794;17.616;2022-11-20T11:27:50;2.00;99.90
56771;DHT22;42641;59.794;17.616;2022-11-20T11:30:19;1.90;99.90
56771;DHT22;42641;59.794;17.616;2022-11-20T11:32:46;1.90;99.90
56771;DHT22;42641;59.794;17.616;2022-11-20T11:35:21;1.90;99.90
56771;DHT22;42641;59.794;17.616;2022-11-20T11:37:48;2.00;99.90
56771;DHT22;42641;59.794;17.616;2022-11-20T11:40:17;2.00;99.90
56771;DHT22;42641;59.794;17.616;2022-11-20T11:42:50;2.00;99.90
56771;DHT22;42641;59.794;17.616;2022-11-20T11:45:19;2.00;99.90
56771;DHT22;42641;59.794;17.616;2022-11-20T11:47:46;2.00;99.90
56771;DHT22;42641;59.794;17.616;2022-11-20T11:50:17;2.00;99.90
56771;DHT22;42641;59.794;17.616;2022-11-20T11:55:45;1.90;99.90
56771;DHT22;42641;59.794;17.616;2022-11-20T12:00:51;1.90;99.90
56771;DHT22;42641;59.794;17.616;2022-11-20T12:03:27;1.90;99.90
56771;DHT22;42641;59.794;17.616;2022-11-20T12:05:58;2.00;99.90
56771;DHT22;42641;59.794;17.616;2022-11-20T12:11:20;1.90;99.90
56771;DHT22;42641;59.794;17.616;2022-11-20T12:16:21;1.90;99.90
56771;DHT22;42641;59.794;17.616;2022-11-20T12:18:50;1.90;99.90
56771;DHT22;42641;59.794;17.616;2022-11-20T12:33:01;1.90;99.90
56771;DHT22;42641;59.794;17.616;2022-11-20T12:43:24;1.90;99.90
56771;DHT22;42641;59.794;17.616;2022-11-20T12:46:18;1.90;99.90
56771;DHT22;42641;59.794;17.616;2022-11-20T12:51:38;1.90;99.90
56771;DHT22;42641;59.794;17.616;2022-11-20T13:00:11;1.90;99.90
56771;DHT22;42641;59.794;17.616;2022-11-20T13:08:34;1.90;99.90
56771;DHT22;42641;59.794;17.616;2022-11-20T13:14:26;2.00;99.90
56771;DHT22;42641;59.794;17.616;2022-11-20T13:19:52;2.00;99.90
56771;DHT22;42641;59.794;17.616;2022-11-20T13:22:27;2.00;99.90
56771;DHT22;42641;59.794;17.616;2022-11-20T13:24:54;2.00;99.90
56771;DHT22;42641;59.794;17.616;2022-11-20T13:27:22;2.00;99.90
56771;DHT22;42641;59.794;17.616;2022-11-20T13:30:15;2.00;99.90
56771;DHT22;42641;59.794;17.616;2022-11-20T13:33:06;2.00;99.90
56771;DHT22;42641;59.794;17.616;2022-11-20T13:35:36;1.90;99.90
56771;DHT22;42641;59.794;17.616;2022-11-20T13:38:12;1.90;99.90
56771;DHT22;42641;59.794;17.616;2022-11-20T13:40:54;1.90;99.90
56771;DHT22;42641;59.794;17.616;2022-11-20T13:43:28;1.90;99.90
56771;DHT22;42641;59.794;17.616;2022-11-20T13:48:34;1.90;99.90
56771;DHT22;42641;59.794;17.616;2022-11-20T14:02:18;1.90;99.90
56771;DHT22;42641;59.794;17.616;2022-11-20T14:04:48;1.90;99.90
56771;DHT22;42641;59.794;17.616;2022-11-20T14:07:17;1.80;99.90
56771;DHT22;42641;59.794;17.616;2022-11-20T14:09:54;1.90;99.90
56771;DHT22;42641;59.794;17.616;2022-11-20T14:12:23;2.00;99.90
56771;DHT22;42641;59.794;17.616;2022-11-20T14:14:52;1.90;99.90
56771;DHT22;42641;59.794;17.616;2022-11-20T14:17:20;2.00;99.90
56771;DHT22;42641;59.794;17.616;2022-11-20T14:19:49;1.90;99.90
56771;DHT22;42641;59.794;17.616;2022-11-20T14:22:27;1.80;99.90
56771;DHT22;42641;59.794;17.616;2022-11-20T14:25:06;1.80;99.90
56771;DHT22;42641;59.794;17.616;2022-11-20T14:27:50;1.80;99.90
56771;DHT22;42641;59.794;17.616;2022-11-20T14:30:20;1.90;99.90
56771;DHT22;42641;59.794;17.616;2022-11-20T14:32:47;1.90;99.90
56771;DHT22;42641;59.794;17.616;2022-11-20T14:35:24;1.80;99.90
56771;DHT22;42641;59.794;17.616;2022-11-20T14:37:52;1.80;99.90
56771;DHT22;42641;59.794;17.616;2022-11-20T14:40:33;1.80;99.90
56771;DHT22;42641;59.794;17.616;2022-11-20T14:43:15;1.80;99.90
56771;DHT22;42641;59.794;17.616;2022-11-20T14:45:43;1.90;99.90
56771;DHT22;42641;59.794;17.616;2022-11-20T14:48:10;1.90;99.90
56771;DHT22;42641;59.794;17.616;2022-11-20T14:50:38;1.90;99.90
56771;DHT22;42641;59.794;17.616;2022-11-20T14:53:05;1.90;99.90
56771;DHT22;42641;59.794;17.616;2022-11-20T14:55:38;1.90;99.90
56771;DHT22;42641;59.794;17.616;2022-11-20T14:58:26;1.90;99.90
56771;DHT22;42641;59.794;17.616;2022-11-20T15:01:04;1.90;99.90
56771;DHT22;42641;59.794;17.616;2022-11-20T15:03:38;2.00;99.90
56771;DHT22;42641;59.794;17.616;2022-11-20T15:06:07;1.90;99.90
56771;DHT22;42641;59.794;17.616;2022-11-20T15:08:34;1.90;99.90
56771;DHT22;42641;59.794;17.616;2022-11-20T15:11:00;2.00;99.90
56771;DHT22;42641;59.794;17.616;2022-11-20T15:13:38;2.00;99.90
56771;DHT22;42641;59.794;17.616;2022-11-20T15:16:34;1.90;99.90
56771;DHT22;42641;59.794;17.616;2022-11-20T15:19:02;1.90;99.90
56771;DHT22;42641;59.794;17.616;2022-11-20T15:21:28;1.80;99.90
56771;DHT22;42641;59.794;17.616;2022-11-20T15:23:55;1.80;99.90
56771;DHT22;42641;59.794;17.616;2022-11-20T15:26:25;1.80;99.90
56771;DHT22;42641;59.794;17.616;2022-11-20T15:28:52;1.80;99.90
56771;DHT22;42641;59.794;17.616;2022-11-20T15:31:21;1.80;99.90
56771;DHT22;42641;59.794;17.616;2022-11-20T15:33:48;1.80;99.90
56771;DHT22;42641;59.794;17.616;2022-11-20T15:36:15;1.80;99.90
56771;DHT22;42641;59.794;17.616;2022-11-20T15:38:41;1.80;99.90
56771;DHT22;42641;59.794;17.616;2022-11-20T15:41:08;1.80;99.90
56771;DHT22;42641;59.794;17.616;2022-11-20T15:43:34;1.80;99.90
56771;DHT22;42641;59.794;17.616;2022-11-20T15:46:02;1.70;99.90
56771;DHT22;42641;59.794;17.616;2022-11-20T15:48:53;1.70;99.90
56771;DHT22;42641;59.794;17.616;2022-11-20T15:51:30;1.70;99.90
56771;DHT22;42641;59.794;17.616;2022-11-20T15:53:57;1.80;99.90
56771;DHT22;42641;59.794;17.616;2022-11-20T15:56:24;1.70;99.90
56771;DHT22;42641;59.794;17.616;2022-11-20T15:58:51;1.70;99.90
56771;DHT22;42641;59.794;17.616;2022-11-20T16:01:20;1.70;99.90
56771;DHT22;42641;59.794;17.616;2022-11-20T16:03:47;1.70;99.90
56771;DHT22;42641;59.794;17.616;2022-11-20T16:06:14;1.70;99.90
56771;DHT22;42641;59.794;17.616;2022-11-20T16:08:42;1.70;99.90
56771;DHT22;42641;59.794;17.616;2022-11-20T16:11:12;1.70;99.90
56771;DHT22;42641;59.794;17.616;2022-11-20T16:13:38;1.70;99.90
56771;DHT22;42641;59.794;17.616;2022-11-20T16:16:29;1.70;99.90
56771;DHT22;42641;59.794;17.616;2022-11-20T16:18:57;1.70;99.90
56771;DHT22;42641;59.794;17.616;2022-11-20T16:21:23;1.60;99.90
56771;DHT22;42641;59.794;17.616;2022-11-20T16:24:00;1.60;99.90
56771;DHT22;42641;59.794;17.616;2022-11-20T16:26:27;1.60;99.90
56771;DHT22;42641;59.794;17.616;2022-11-20T16:28:54;1.60;99.90
56771;DHT22;42641;59.794;17.616;2022-11-20T16:31:20;1.60;99.90
56771;DHT22;42641;59.794;17.616;2022-11-20T16:33:57;1.60;99.90
56771;DHT22;42641;59.794;17.616;2022-11-20T16:36:25;1.50;99.90
56771;DHT22;42641;59.794;17.616;2022-11-20T16:39:02;1.50;99.90
56771;DHT22;42641;59.794;17.616;2022-11-20T16:41:31;1.50;99.90
56771;DHT22;42641;59.794;17.616;2022-11-20T16:44:05;1.60;99.90
56771;DHT22;42641;59.794;17.616;2022-11-20T16:46:32;1.60;99.90
56771;DHT22;42641;59.794;17.616;2022-11-20T16:49:04;1.60;99.90
56771;DHT22;42641;59.794;17.616;2022-11-20T16:51:34;1.60;99.90
56771;DHT22;42641;59.794;17.616;2022-11-20T16:54:03;1.60;99.90
56771;DHT22;42641;59.794;17.616;2022-11-20T16:56:29;1.50;99.90
56771;DHT22;42641;59.794;17.616;2022-11-20T16:58:57;1.50;99.90
56771;DHT22;42641;59.794;17.616;2022-11-20T17:01:25;1.50;99.90
56771;DHT22;42641;59.794;17.616;2022-11-20T17:03:57;1.50;99.90
56771;DHT22;42641;59.794;17.616;2022-11-20T17:06:26;1.50;99.90
56771;DHT22;42641;59.794;17.616;2022-11-20T17:08:54;1.40;99.90
56771;DHT22;42641;59.794;17.616;2022-11-20T17:11:20;1.40;99.90
56771;DHT22;42641;59.794;17.616;2022-11-20T17:13:47;1.40;99.90
56771;DHT22;42641;59.794;17.616;2022-11-20T17:16:18;1.30;99.90
56771;DHT22;42641;59.794;17.616;2022-11-20T17:18:46;1.30;99.90
56771;DHT22;42641;59.794;17.616;2022-11-20T17:21:16;1.40;99.90
56771;DHT22;42641;59.794;17.616;2022-11-20T17:23:44;1.40;99.90
56771;DHT22;42641;59.794;17.616;2022-11-20T17:26:19;1.40;99.90
56771;DHT22;42641;59.794;17.616;2022-11-20T17:28:56;1.40;99.90
56771;DHT22;42641;59.794;17.616;2022-11-20T17:31:25;1.40;99.90
56771;DHT22;42641;59.794;17.616;2022-11-20T17:33:52;1.40;99.90
56771;DHT22;42641;59.794;17.616;2022-11-20T17:36:19;1.40;99.90